sensor_id;sensor_type;location;lat;lon;timestamp;temperature;humidity
57636;DHT22;43465;50.728;4.160;2022-09-29T00:01:24;10.50;99.90
57636;DHT22;43465;50.728;4.160;2022-09-29T00:03:49;10.50;99.90
57636;DHT22;43465;50.728;4.160;2022-09-29T00:06:16;10.50;99.90
57636;DHT22;43465;50.728;4.160;2022-09-29T00:08:43;10.40;99.90
57636;DHT22;43465;50.728;4.160;2022-09-29T00:11:12;10.40;99.90
57636;DHT22;43465;50.728;4.160;2022-09-29T00:13:37;10.40;99.90
57636;DHT22;43465;50.728;4.160;2022-09-29T00:16:04;10.40;99.90
57636;DHT22;43465;50.728;4.160;2022-09-29T00:18:31;10.30;99.90
57636;DHT22;43465;50.728;4.160;2022-09-29T00:20:58;10.30;99.90
57636;DHT22;43465;50.728;4.160;2022-09-29T00:23:24;10.30;99.90
57636;DHT22;43465;50.728;4.160;2022-09-29T00:26:09;10.20;99.90
57636;DHT22;43465;50.728;4.160;2022-09-29T00:28:36;10.20;99.90
57636;DHT22;43465;50.728;4.160;2022-09-29T00:31:04;10.20;99.90
57636;DHT22;43465;50.728;4.160;2022-09-29T00:33:31;10.20;99.90
57636;DHT22;43465;50.728;4.160;2022-09-29T00:36:00;10.20;99.90
57636;DHT22;43465;50.728;4.160;2022-09-29T00:38:26;10.20;99.90
57636;DHT22;43465;50.728;4.160;2022-09-29T00:40:53;10.20;99.90
57636;DHT22;43465;50.728;4.160;2022-09-29T00:43:21;10.10;99.90
57636;DHT22;43465;50.728;4.160;2022-09-29T00:45:49;10.10;99.90
57636;DHT22;43465;50.728;4.160;2022-09-29T00:48:22;10.10;99.90
57636;DHT22;43465;50.728;4.160;2022-09-29T00:50:51;10.10;99.90
57636;DHT22;43465;50.728;4.160;2022-09-29T00:53:19;10.10;99.90
57636;DHT22;43465;50.728;4.160;2022-09-29T00:55:57;10.00;99.90
57636;DHT22;43465;50.728;4.160;2022-09-29T00:58:41;10.00;99.90
57636;DHT22;43465;50.728;4.160;2022-09-29T01:01:09;10.00;99.90
57636;DHT22;43465;50.728;4.160;2022-09-29T01:03:39;9.90;99.90
57636;DHT22;43465;50.728;4.160;2022-09-29T01:06:14;9.90;99.90
57636;DHT22;43465;50.728;4.160;2022-09-29T01:11:23;9.80;99.90
57636;DHT22;43465;50.728;4.160;2022-09-29T01:13:50;9.70;99.90
57636;DHT22;43465;50.728;4.160;2022-09-29T01:16:16;9.70;99.90
57636;DHT22;43465;50.728;4.160;2022-09-29T01:18:43;9.70;99.90
57636;DHT22;43465;50.728;4.160;2022-09-29T01:35:21;9.60;99.90
57636;DHT22;43465;50.728;4.160;2022-09-29T01:40:46;9.60;99.90
57636;DHT22;43465;50.728;4.160;2022-09-29T01:43:24;9.60;99.90
57636;DHT22;43465;50.728;4.160;2022-09-29T01:46:13;9.60;99.90
57636;DHT22;43465;50.728;4.160;2022-09-29T01:48:47;9.60;99.90
57636;DHT22;43465;50.728;4.160;2022-09-29T01:51:28;9.60;99.90
57636;DHT22;43465;50.728;4.160;2022-09-29T01:53:57;9.60;99.90
57636;DHT22;43465;50.728;4.160;2022-09-29T01:56:28;9.60;99.90
57636;DHT22;43465;50.728;4.160;2022-09-29T01:59:35;9.60;99.90
57636;DHT22;43465;50.728;4.160;2022-09-29T02:01:55;9.60;99.90
57636;DHT22;43465;50.728;4.160;2022-09-29T02:04:31;9.60;99.90
57636;DHT22;43465;50.728;4.160;2022-09-29T02:07:05;9.60;99.90
57636;DHT22;43465;50.728;4.160;2022-09-29T02:09:38;9.60;99.90
57636;DHT22;43465;50.728;4.160;2022-09-29T02:12:07;9.60;99.90
57636;DHT22;43465;50.728;4.160;2022-09-29T02:14:41;9.50;99.90
57636;DHT22;43465;50.728;4.160;2022-09-29T02:17:13;9.50;99.90
57636;DHT22;43465;50.728;4.160;2022-09-29T02:19:45;9.50;99.90
57636;DHT22;43465;50.728;4.160;2022-09-29T02:22:12;9.50;99.90
57636;DHT22;43465;50.728;4.160;2022-09-29T02:24:38;9.50;99.90
57636;DHT22;43465;50.728;4.160;2022-09-29T02:27:05;9.50;99.90
57636;DHT22;43465;50.728;4.160;2022-09-29T02:29:32;9.50;99.90
57636;DHT22;43465;50.728;4.160;2022-09-29T02:31:58;9.60;99.90
57636;DHT22;43465;50.728;4.160;2022-09-29T02:34:29;9.50;99.90
57636;DHT22;43465;50.728;4.160;2022-09-29T02:48:31;9.60;99.90
57636;DHT22;43465;50.728;4.160;2022-09-29T03:01:21;9.60;99.90
57636;DHT22;43465;50.728;4.160;2022-09-29T03:03:46;9.70;99.90
57636;DHT22;43465;50.728;4.160;2022-09-29T03:06:12;9.70;99.90
57636;DHT22;43465;50.728;4.160;2022-09-29T03:08:39;9.70;99.90
57636;DHT22;43465;50.728;4.160;2022-09-29T03:11:04;9.70;99.90
57636;DHT22;43465;50.728;4.160;2022-09-29T03:13:30;9.70;99.90
57636;DHT22;43465;50.728;4.160;2022-09-29T03:15:55;9.60;99.90
57636;DHT22;43465;50.728;4.160;2022-09-29T03:18:21;9.60;99.90
57636;DHT22;43465;50.728;4.160;2022-09-29T03:20:48;9.60;99.90
57636;DHT22;43465;50.728;4.160;2022-09-29T03:23:14;9.60;99.90
57636;DHT22;43465;50.728;4.160;2022-09-29T03:25:40;9.60;99.90
57636;DHT22;43465;50.728;4.160;2022-09-29T03:28:06;9.60;99.90
57636;DHT22;43465;50.728;4.160;2022-09-29T03:30:32;9.60;99.90
57636;DHT22;43465;50.728;4.160;2022-09-29T03:32:57;9.60;99.90
57636;DHT22;43465;50.728;4.160;2022-09-29T03:35:23;9.60;99.90
57636;DHT22;43465;50.728;4.160;2022-09-29T03:37:48;9.60;99.90
57636;DHT22;43465;50.728;4.160;2022-09-29T03:40:14;9.70;99.90
57636;DHT22;43465;50.728;4.160;2022-09-29T03:42:40;9.70;99.90
57636;DHT22;43465;50.728;4.160;2022-09-29T03:45:06;9.70;99.90
57636;DHT22;43465;50.728;4.160;2022-09-29T03:47:32;9.70;99.90
57636;DHT22;43465;50.728;4.160;2022-09-29T03:49:57;9.80;99.90
57636;DHT22;43465;50.728;4.160;2022-09-29T03:52:23;9.80;99.90
57636;DHT22;43465;50.728;4.160;2022-09-29T03:54:49;9.80;99.90
57636;DHT22;43465;50.728;4.160;2022-09-29T03:57:14;9.70;99.90
57636;DHT22;43465;50.728;4.160;2022-09-29T03:59:40;9.70;99.90
57636;DHT22;43465;50.728;4.160;2022-09-29T04:02:06;9.70;99.90
57636;DHT22;43465;50.728;4.160;2022-09-29T04:04:32;9.70;99.90
57636;DHT22;43465;50.728;4.160;2022-09-29T04:06:57;9.80;99.90
57636;DHT22;43465;50.728;4.160;2022-09-29T04:09:23;9.80;99.90
57636;DHT22;43465;50.728;4.160;2022-09-29T04:11:48;9.80;99.90
57636;DHT22;43465;50.728;4.160;2022-09-29T04:14:14;9.80;99.90
57636;DHT22;43465;50.728;4.160;2022-09-29T04:16:40;9.70;99.90
57636;DHT22;43465;50.728;4.160;2022-09-29T04:19:05;9.70;99.90
57636;DHT22;43465;50.728;4.160;2022-09-29T04:21:31;9.70;99.90
57636;DHT22;43465;50.728;4.160;2022-09-29T04:23:56;9.70;99.90
57636;DHT22;43465;50.728;4.160;2022-09-29T04:26:22;9.70;99.90
57636;DHT22;43465;50.728;4.160;2022-09-29T04:28:49;9.80;99.90
57636;DHT22;43465;50.728;4.160;2022-09-29T04:31:14;9.80;99.90
57636;DHT22;43465;50.728;4.160;2022-09-29T04:33:40;9.80;99.90
57636;DHT22;43465;50.728;4.160;2022-09-29T04:36:06;9.80;99.90
57636;DHT22;43465;50.728;4.160;2022-09-29T04:38:32;9.90;99.90
57636;DHT22;43465;50.728;4.160;2022-09-29T04:40:57;9.90;99.90
57636;DHT22;43465;50.728;4.160;2022-09-29T04:43:23;9.70;99.90
57636;DHT22;43465;50.728;4.160;2022-09-29T04:45:49;9.60;99.90
57636;DHT22;43465;50.728;4.160;2022-09-29T04:48:15;9.60;99.90
57636;DHT22;43465;50.728;4.160;2022-09-29T04:50:41;9.50;99.90
57636;DHT22;43465;50.728;4.160;2022-09-29T04:53:08;9.60;99.90
57636;DHT22;43465;50.728;4.160;2022-09-29T04:55:36;9.80;99.90
57636;DHT22;43465;50.728;4.160;2022-09-29T04:58:02;10.00;99.90
57636;DHT22;43465;50.728;4.160;2022-09-29T05:00:27;10.00;99.90
57636;DHT22;43465;50.728;4.160;2022-09-29T05:02:53;10.10;99.90
57636;DHT22;43465;50.728;4.160;2022-09-29T05:05:19;10.10;99.90
57636;DHT22;43465;50.728;4.160;2022-09-29T05:07:44;10.00;99.90
57636;DHT22;43465;50.728;4.160;2022-09-29T05:10:10;10.00;99.90
57636;DHT22;43465;50.728;4.160;2022-09-29T05:12:36;10.00;99.90
57636;DHT22;43465;50.728;4.160;2022-09-29T05:15:02;9.90;99.90
57636;DHT22;43465;50.728;4.160;2022-09-29T05:17:29;9.80;99.90
57636;DHT22;43465;50.728;4.160;2022-09-29T05:19:54;9.80;99.90
57636;DHT22;43465;50.728;4.160;2022-09-29T05:22:20;9.70;99.90
57636;DHT22;43465;50.728;4.160;2022-09-29T05:24:52;9.70;99.90
57636;DHT22;43465;50.728;4.160;2022-09-29T05:27:18;9.70;99.90
57636;DHT22;43465;50.728;4.160;2022-09-29T05:29:44;9.70;99.90
57636;DHT22;43465;50.728;4.160;2022-09-29T05:32:10;9.60;99.90
57636;DHT22;43465;50.728;4.160;2022-09-29T05:34:36;9.70;99.90
57636;DHT22;43465;50.728;4.160;2022-09-29T05:37:01;9.70;99.90
57636;DHT22;43465;50.728;4.160;2022-09-29T05:39:27;9.70;99.90
57636;DHT22;43465;50.728;4.160;2022-09-29T05:41:56;9.70;99.90
57636;DHT22;43465;50.728;4.160;2022-09-29T05:44:21;9.70;99.90
57636;DHT22;43465;50.728;4.160;2022-09-29T05:46:47;9.60;99.90
57636;DHT22;43465;50.728;4.160;2022-09-29T05:49:13;9.60;99.90
57636;DHT22;43465;50.728;4.160;2022-09-29T05:51:38;9.60;99.90
57636;DHT22;43465;50.728;4.160;2022-09-29T05:54:04;9.60;99.90
57636;DHT22;43465;50.728;4.160;2022-09-29T05:56:30;9.60;99.90
57636;DHT22;43465;50.728;4.160;2022-09-29T05:58:56;9.60;99.90
57636;DHT22;43465;50.728;4.160;2022-09-29T06:01:23;9.60;99.90
57636;DHT22;43465;50.728;4.160;2022-09-29T06:03:49;9.60;99.90
57636;DHT22;43465;50.728;4.160;2022-09-29T06:06:24;9.60;99.90
57636;DHT22;43465;50.728;4.160;2022-09-29T06:08:51;9.60;99.90
57636;DHT22;43465;50.728;4.160;2022-09-29T06:11:19;9.60;99.90
57636;DHT22;43465;50.728;4.160;2022-09-29T06:13:47;9.60;99.90
57636;DHT22;43465;50.728;4.160;2022-09-29T06:16:14;9.70;99.90
57636;DHT22;43465;50.728;4.160;2022-09-29T06:18:41;9.60;99.90
57636;DHT22;43465;50.728;4.160;2022-09-29T06:21:09;9.70;99.90
57636;DHT22;43465;50.728;4.160;2022-09-29T06:23:36;9.70;99.90
57636;DHT22;43465;50.728;4.160;2022-09-29T06:26:06;9.70;99.90
57636;DHT22;43465;50.728;4.160;2022-09-29T06:28:32;9.70;99.90
57636;DHT22;43465;50.728;4.160;2022-09-29T06:30:59;9.70;99.90
57636;DHT22;43465;50.728;4.160;2022-09-29T06:33:26;9.70;99.90
57636;DHT22;43465;50.728;4.160;2022-09-29T06:35:52;9.80;99.90
57636;DHT22;43465;50.728;4.160;2022-09-29T06:38:36;9.80;99.90
57636;DHT22;43465;50.728;4.160;2022-09-29T06:41:02;9.90;99.90
57636;DHT22;43465;50.728;4.160;2022-09-29T06:43:27;9.90;99.90
57636;DHT22;43465;50.728;4.160;2022-09-29T06:45:53;9.90;99.90
57636;DHT22;43465;50.728;4.160;2022-09-29T06:48:19;10.00;99.90
57636;DHT22;43465;50.728;4.160;2022-09-29T06:50:44;10.00;99.90
57636;DHT22;43465;50.728;4.160;2022-09-29T06:53:10;10.00;99.90
57636;DHT22;43465;50.728;4.160;2022-09-29T06:55:36;10.00;99.90
57636;DHT22;43465;50.728;4.160;2022-09-29T06:58:01;10.00;99.90
57636;DHT22;43465;50.728;4.160;2022-09-29T07:00:27;9.80;99.90
57636;DHT22;43465;50.728;4.160;2022-09-29T07:02:52;9.70;99.90
57636;DHT22;43465;50.728;4.160;2022-09-29T07:05:19;9.80;99.90
57636;DHT22;43465;50.728;4.160;2022-09-29T07:07:47;10.00;99.90
57636;DHT22;43465;50.728;4.160;2022-09-29T07:10:13;10.10;99.90
57636;DHT22;43465;50.728;4.160;2022-09-29T07:12:40;10.20;99.90
57636;DHT22;43465;50.728;4.160;2022-09-29T07:15:06;10.40;99.90
57636;DHT22;43465;50.728;4.160;2022-09-29T07:17:32;10.40;99.90
57636;DHT22;43465;50.728;4.160;2022-09-29T07:19:57;10.60;99.90
57636;DHT22;43465;50.728;4.160;2022-09-29T07:22:23;10.60;99.90
57636;DHT22;43465;50.728;4.160;2022-09-29T07:24:49;10.70;99.90
57636;DHT22;43465;50.728;4.160;2022-09-29T07:27:18;10.80;99.90
57636;DHT22;43465;50.728;4.160;2022-09-29T07:29:51;10.70;99.90
57636;DHT22;43465;50.728;4.160;2022-09-29T07:32:18;10.60;99.90
57636;DHT22;43465;50.728;4.160;2022-09-29T07:34:44;10.70;99.90
57636;DHT22;43465;50.728;4.160;2022-09-29T07:37:10;11.00;99.90
57636;DHT22;43465;50.728;4.160;2022-09-29T07:39:36;11.10;99.90
57636;DHT22;43465;50.728;4.160;2022-09-29T07:42:02;11.10;99.90
57636;DHT22;43465;50.728;4.160;2022-09-29T07:44:28;11.30;99.90
57636;DHT22;43465;50.728;4.160;2022-09-29T07:46:56;11.40;99.90
57636;DHT22;43465;50.728;4.160;2022-09-29T07:49:22;11.50;99.90
57636;DHT22;43465;50.728;4.160;2022-09-29T07:51:47;11.60;99.90
57636;DHT22;43465;50.728;4.160;2022-09-29T07:54:13;11.60;99.90
57636;DHT22;43465;50.728;4.160;2022-09-29T07:56:38;11.60;99.90
57636;DHT22;43465;50.728;4.160;2022-09-29T07:59:04;11.40;99.90
57636;DHT22;43465;50.728;4.160;2022-09-29T08:01:30;11.50;99.90
57636;DHT22;43465;50.728;4.160;2022-09-29T08:03:56;11.70;99.90
57636;DHT22;43465;50.728;4.160;2022-09-29T08:06:23;11.70;99.90
57636;DHT22;43465;50.728;4.160;2022-09-29T08:08:49;11.70;99.90
57636;DHT22;43465;50.728;4.160;2022-09-29T08:11:17;11.80;99.90
57636;DHT22;43465;50.728;4.160;2022-09-29T08:13:45;11.90;99.90
57636;DHT22;43465;50.728;4.160;2022-09-29T08:16:12;11.90;99.90
57636;DHT22;43465;50.728;4.160;2022-09-29T08:18:39;11.90;99.90
57636;DHT22;43465;50.728;4.160;2022-09-29T08:21:05;12.00;99.90
57636;DHT22;43465;50.728;4.160;2022-09-29T08:23:38;12.20;99.90
57636;DHT22;43465;50.728;4.160;2022-09-29T08:26:10;12.30;99.90
57636;DHT22;43465;50.728;4.160;2022-09-29T08:28:37;12.40;99.90
57636;DHT22;43465;50.728;4.160;2022-09-29T08:31:08;12.40;99.90
57636;DHT22;43465;50.728;4.160;2022-09-29T08:33:35;12.50;99.90
57636;DHT22;43465;50.728;4.160;2022-09-29T08:36:01;12.60;99.90
57636;DHT22;43465;50.728;4.160;2022-09-29T08:38:31;12.70;99.90
57636;DHT22;43465;50.728;4.160;2022-09-29T08:41:02;12.80;99.90
57636;DHT22;43465;50.728;4.160;2022-09-29T08:43:40;12.80;99.90
57636;DHT22;43465;50.728;4.160;2022-09-29T08:46:23;12.90;99.90
57636;DHT22;43465;50.728;4.160;2022-09-29T08:48:50;13.10;99.90
57636;DHT22;43465;50.728;4.160;2022-09-29T08:51:32;13.20;99.90
57636;DHT22;43465;50.728;4.160;2022-09-29T08:54:05;13.30;99.90
57636;DHT22;43465;50.728;4.160;2022-09-29T08:56:32;13.30;99.90
57636;DHT22;43465;50.728;4.160;2022-09-29T08:58:58;13.50;99.90
57636;DHT22;43465;50.728;4.160;2022-09-29T09:23:54;14.30;99.90
57636;DHT22;43465;50.728;4.160;2022-09-29T09:26:42;14.40;99.90
57636;DHT22;43465;50.728;4.160;2022-09-29T09:31:56;14.60;99.90
57636;DHT22;43465;50.728;4.160;2022-09-29T09:34:35;14.80;99.90
57636;DHT22;43465;50.728;4.160;2022-09-29T09:37:06;14.80;99.90
57636;DHT22;43465;50.728;4.160;2022-09-29T09:39:35;14.80;99.90
57636;DHT22;43465;50.728;4.160;2022-09-29T09:42:07;14.90;99.90
57636;DHT22;43465;50.728;4.160;2022-09-29T09:44:42;15.00;99.90
57636;DHT22;43465;50.728;4.160;2022-09-29T09:49:58;15.20;99.90
57636;DHT22;43465;50.728;4.160;2022-09-29T09:52:46;15.30;99.90
57636;DHT22;43465;50.728;4.160;2022-09-29T09:55:21;15.30;99.90
57636;DHT22;43465;50.728;4.160;2022-09-29T10:03:04;15.50;99.90
57636;DHT22;43465;50.728;4.160;2022-09-29T10:05:50;15.60;99.90
57636;DHT22;43465;50.728;4.160;2022-09-29T10:08:25;15.70;99.90
57636;DHT22;43465;50.728;4.160;2022-09-29T10:10:52;15.80;99.90
57636;DHT22;43465;50.728;4.160;2022-09-29T10:13:18;16.00;99.90
57636;DHT22;43465;50.728;4.160;2022-09-29T10:15:57;16.10;99.90
57636;DHT22;43465;50.728;4.160;2022-09-29T10:21:01;16.10;99.90
57636;DHT22;43465;50.728;4.160;2022-09-29T10:23:33;16.10;99.90
57636;DHT22;43465;50.728;4.160;2022-09-29T10:26:14;16.20;99.90
57636;DHT22;43465;50.728;4.160;2022-09-29T10:33:50;16.40;99.90
57636;DHT22;43465;50.728;4.160;2022-09-29T10:36:17;16.30;99.90
57636;DHT22;43465;50.728;4.160;2022-09-29T10:38:47;16.50;99.90
57636;DHT22;43465;50.728;4.160;2022-09-29T10:41:13;16.60;99.90
57636;DHT22;43465;50.728;4.160;2022-09-29T10:43:41;16.70;99.90
57636;DHT22;43465;50.728;4.160;2022-09-29T10:49:27;16.80;99.90
57636;DHT22;43465;50.728;4.160;2022-09-29T10:52:25;17.00;99.90
57636;DHT22;43465;50.728;4.160;2022-09-29T10:55:00;17.10;99.90
57636;DHT22;43465;50.728;4.160;2022-09-29T10:57:31;17.10;99.90
57636;DHT22;43465;50.728;4.160;2022-09-29T10:59:57;16.80;99.90
57636;DHT22;43465;50.728;4.160;2022-09-29T11:02:35;16.60;99.90
57636;DHT22;43465;50.728;4.160;2022-09-29T11:05:14;16.40;99.90
57636;DHT22;43465;50.728;4.160;2022-09-29T11:07:46;16.50;99.90
57636;DHT22;43465;50.728;4.160;2022-09-29T11:10:35;16.40;99.90
57636;DHT22;43465;50.728;4.160;2022-09-29T11:13:33;16.30;99.90
57636;DHT22;43465;50.728;4.160;2022-09-29T11:16:14;16.20;99.90
57636;DHT22;43465;50.728;4.160;2022-09-29T11:18:43;16.00;99.90
57636;DHT22;43465;50.728;4.160;2022-09-29T11:24:19;15.50;99.90
57636;DHT22;43465;50.728;4.160;2022-09-29T11:29:33;15.40;99.90
57636;DHT22;43465;50.728;4.160;2022-09-29T11:34:49;15.20;99.90
57636;DHT22;43465;50.728;4.160;2022-09-29T11:46:26;15.00;99.90
57636;DHT22;43465;50.728;4.160;2022-09-29T11:56:59;15.70;99.90
57636;DHT22;43465;50.728;4.160;2022-09-29T12:00:01;16.00;99.90
57636;DHT22;43465;50.728;4.160;2022-09-29T12:05:56;16.40;99.90
57636;DHT22;43465;50.728;4.160;2022-09-29T12:11:40;16.70;99.90
57636;DHT22;43465;50.728;4.160;2022-09-29T12:14:24;16.80;99.90
57636;DHT22;43465;50.728;4.160;2022-09-29T12:17:01;16.90;99.90
57636;DHT22;43465;50.728;4.160;2022-09-29T12:19:31;17.10;99.90
57636;DHT22;43465;50.728;4.160;2022-09-29T12:22:00;17.10;99.90
57636;DHT22;43465;50.728;4.160;2022-09-29T12:24:40;17.20;99.90
57636;DHT22;43465;50.728;4.160;2022-09-29T12:27:13;17.30;99.90
57636;DHT22;43465;50.728;4.160;2022-09-29T12:29:43;17.40;99.90
57636;DHT22;43465;50.728;4.160;2022-09-29T12:32:15;17.50;99.90
57636;DHT22;43465;50.728;4.160;2022-09-29T12:35:36;17.70;99.90
57636;DHT22;43465;50.728;4.160;2022-09-29T12:38:11;17.70;99.90
57636;DHT22;43465;50.728;4.160;2022-09-29T12:41:00;17.70;99.90
57636;DHT22;43465;50.728;4.160;2022-09-29T12:46:23;17.90;99.90
57636;DHT22;43465;50.728;4.160;2022-09-29T12:51:49;18.10;99.90
57636;DHT22;43465;50.728;4.160;2022-09-29T12:54:22;18.10;99.90
57636;DHT22;43465;50.728;4.160;2022-09-29T12:56:59;18.10;99.90
57636;DHT22;43465;50.728;4.160;2022-09-29T13:11:08;17.30;99.70
57636;DHT22;43465;50.728;4.160;2022-09-29T13:19:24;16.90;99.90
57636;DHT22;43465;50.728;4.160;2022-09-29T13:24:41;16.90;99.90
57636;DHT22;43465;50.728;4.160;2022-09-29T13:27:31;16.80;99.90
57636;DHT22;43465;50.728;4.160;2022-09-29T13:32:41;16.80;99.90
57636;DHT22;43465;50.728;4.160;2022-09-29T13:35:20;16.90;99.90
57636;DHT22;43465;50.728;4.160;2022-09-29T13:37:55;17.00;99.90
57636;DHT22;43465;50.728;4.160;2022-09-29T13:40:24;17.20;99.90
57636;DHT22;43465;50.728;4.160;2022-09-29T13:42:54;17.40;99.90
57636;DHT22;43465;50.728;4.160;2022-09-29T13:47:51;17.80;99.50
57636;DHT22;43465;50.728;4.160;2022-09-29T13:50:43;18.10;99.40
57636;DHT22;43465;50.728;4.160;2022-09-29T13:55:52;18.50;99.10
57636;DHT22;43465;50.728;4.160;2022-09-29T13:58:35;18.40;97.20
57636;DHT22;43465;50.728;4.160;2022-09-29T14:01:08;18.10;98.00
57636;DHT22;43465;50.728;4.160;2022-09-29T14:03:41;17.90;97.90
57636;DHT22;43465;50.728;4.160;2022-09-29T14:06:19;17.80;98.20
57636;DHT22;43465;50.728;4.160;2022-09-29T14:09:00;17.60;98.30
57636;DHT22;43465;50.728;4.160;2022-09-29T14:11:46;17.40;98.80
57636;DHT22;43465;50.728;4.160;2022-09-29T14:16:50;17.20;99.90
57636;DHT22;43465;50.728;4.160;2022-09-29T14:24:50;16.70;99.90
57636;DHT22;43465;50.728;4.160;2022-09-29T14:27:28;16.50;99.90
57636;DHT22;43465;50.728;4.160;2022-09-29T14:32:58;16.30;99.90
57636;DHT22;43465;50.728;4.160;2022-09-29T14:35:34;16.20;99.90
57636;DHT22;43465;50.728;4.160;2022-09-29T14:38:20;16.10;99.90
57636;DHT22;43465;50.728;4.160;2022-09-29T14:43:49;16.20;99.90
57636;DHT22;43465;50.728;4.160;2022-09-29T14:55:19;16.60;99.90
57636;DHT22;43465;50.728;4.160;2022-09-29T15:03:23;16.70;98.80
57636;DHT22;43465;50.728;4.160;2022-09-29T15:06:10;16.70;99.30
57636;DHT22;43465;50.728;4.160;2022-09-29T15:08:36;16.60;99.60
57636;DHT22;43465;50.728;4.160;2022-09-29T15:11:34;16.50;99.90
57636;DHT22;43465;50.728;4.160;2022-09-29T15:16:50;16.30;99.90
57636;DHT22;43465;50.728;4.160;2022-09-29T15:19:39;16.20;99.90
57636;DHT22;43465;50.728;4.160;2022-09-29T15:25:19;16.00;99.90
57636;DHT22;43465;50.728;4.160;2022-09-29T15:27:51;16.00;99.90
57636;DHT22;43465;50.728;4.160;2022-09-29T15:30:20;16.00;99.90
57636;DHT22;43465;50.728;4.160;2022-09-29T15:32:46;15.90;99.90
57636;DHT22;43465;50.728;4.160;2022-09-29T15:35:19;15.80;99.90
57636;DHT22;43465;50.728;4.160;2022-09-29T15:37:58;15.80;99.90
57636;DHT22;43465;50.728;4.160;2022-09-29T15:40:39;15.80;99.90
57636;DHT22;43465;50.728;4.160;2022-09-29T15:43:22;15.80;99.90
57636;DHT22;43465;50.728;4.160;2022-09-29T15:45:56;15.80;99.90
57636;DHT22;43465;50.728;4.160;2022-09-29T15:48:26;15.80;99.90
57636;DHT22;43465;50.728;4.160;2022-09-29T15:50:53;15.70;99.90
57636;DHT22;43465;50.728;4.160;2022-09-29T15:53:20;15.70;99.90
57636;DHT22;43465;50.728;4.160;2022-09-29T15:55:48;15.70;99.90
57636;DHT22;43465;50.728;4.160;2022-09-29T16:01:03;15.60;99.90
57636;DHT22;43465;50.728;4.160;2022-09-29T16:03:38;15.50;99.90
57636;DHT22;43465;50.728;4.160;2022-09-29T16:06:26;15.60;99.90
57636;DHT22;43465;50.728;4.160;2022-09-29T16:08:55;15.60;99.90
57636;DHT22;43465;50.728;4.160;2022-09-29T16:11:25;15.60;99.90
57636;DHT22;43465;50.728;4.160;2022-09-29T16:13:58;15.60;99.90
57636;DHT22;43465;50.728;4.160;2022-09-29T16:16:32;15.60;99.90
57636;DHT22;43465;50.728;4.160;2022-09-29T16:18:59;15.60;99.90
57636;DHT22;43465;50.728;4.160;2022-09-29T16:21:32;15.60;99.90
57636;DHT22;43465;50.728;4.160;2022-09-29T16:24:20;15.60;99.90
57636;DHT22;43465;50.728;4.160;2022-09-29T16:26:50;15.60;99.90
57636;DHT22;43465;50.728;4.160;2022-09-29T16:31:54;15.60;99.90
57636;DHT22;43465;50.728;4.160;2022-09-29T16:36:50;15.70;99.90
57636;DHT22;43465;50.728;4.160;2022-09-29T16:39:18;15.60;99.90
57636;DHT22;43465;50.728;4.160;2022-09-29T16:41:49;15.60;99.90
57636;DHT22;43465;50.728;4.160;2022-09-29T16:52:26;15.50;99.90
57636;DHT22;43465;50.728;4.160;2022-09-29T16:55:24;15.40;99.90
57636;DHT22;43465;50.728;4.160;2022-09-29T17:00:25;15.40;99.90
57636;DHT22;43465;50.728;4.160;2022-09-29T17:02:54;15.30;99.90
57636;DHT22;43465;50.728;4.160;2022-09-29T17:05:23;15.20;99.90
57636;DHT22;43465;50.728;4.160;2022-09-29T17:07:50;15.20;99.90
57636;DHT22;43465;50.728;4.160;2022-09-29T17:10:24;15.20;99.90
57636;DHT22;43465;50.728;4.160;2022-09-29T17:12:49;15.20;99.90
57636;DHT22;43465;50.728;4.160;2022-09-29T17:15:16;15.20;99.90
57636;DHT22;43465;50.728;4.160;2022-09-29T17:17:47;15.20;99.90
57636;DHT22;43465;50.728;4.160;2022-09-29T17:20:18;15.30;99.90
57636;DHT22;43465;50.728;4.160;2022-09-29T17:22:46;15.20;99.90
57636;DHT22;43465;50.728;4.160;2022-09-29T17:25:13;15.20;99.90
57636;DHT22;43465;50.728;4.160;2022-09-29T17:27:39;15.30;99.90
57636;DHT22;43465;50.728;4.160;2022-09-29T17:30:25;15.30;99.90
57636;DHT22;43465;50.728;4.160;2022-09-29T17:32:54;15.40;99.90
57636;DHT22;43465;50.728;4.160;2022-09-29T17:35:28;15.40;99.90
57636;DHT22;43465;50.728;4.160;2022-09-29T17:37:54;15.50;99.90
57636;DHT22;43465;50.728;4.160;2022-09-29T17:42:52;15.50;99.90
57636;DHT22;43465;50.728;4.160;2022-09-29T17:45:20;15.50;99.90
57636;DHT22;43465;50.728;4.160;2022-09-29T17:47:46;15.40;99.90
57636;DHT22;43465;50.728;4.160;2022-09-29T17:52:54;15.40;99.90
57636;DHT22;43465;50.728;4.160;2022-09-29T17:55:20;15.40;99.90
57636;DHT22;43465;50.728;4.160;2022-09-29T17:57:51;15.30;99.90
57636;DHT22;43465;50.728;4.160;2022-09-29T18:00:19;15.20;99.90
57636;DHT22;43465;50.728;4.160;2022-09-29T18:02:50;15.20;99.90
57636;DHT22;43465;50.728;4.160;2022-09-29T18:05:19;15.10;99.90
57636;DHT22;43465;50.728;4.160;2022-09-29T18:07:49;15.10;99.90
57636;DHT22;43465;50.728;4.160;2022-09-29T18:12:49;15.00;99.90
57636;DHT22;43465;50.728;4.160;2022-09-29T18:15:15;15.00;99.90
57636;DHT22;43465;50.728;4.160;2022-09-29T18:17:42;14.90;99.90
57636;DHT22;43465;50.728;4.160;2022-09-29T18:20:17;14.80;99.90
57636;DHT22;43465;50.728;4.160;2022-09-29T18:22:43;14.80;99.90
57636;DHT22;43465;50.728;4.160;2022-09-29T18:25:11;14.70;99.90
57636;DHT22;43465;50.728;4.160;2022-09-29T18:27:37;14.70;99.90
57636;DHT22;43465;50.728;4.160;2022-09-29T18:30:16;14.60;99.90
57636;DHT22;43465;50.728;4.160;2022-09-29T18:32:44;14.40;99.90
57636;DHT22;43465;50.728;4.160;2022-09-29T18:35:17;14.40;99.90
57636;DHT22;43465;50.728;4.160;2022-09-29T18:37:43;14.30;99.90
57636;DHT22;43465;50.728;4.160;2022-09-29T18:40:09;14.20;99.90
57636;DHT22;43465;50.728;4.160;2022-09-29T18:42:40;14.30;99.90
57636;DHT22;43465;50.728;4.160;2022-09-29T18:45:09;14.30;99.90
57636;DHT22;43465;50.728;4.160;2022-09-29T18:47:36;14.30;99.90
57636;DHT22;43465;50.728;4.160;2022-09-29T18:50:01;14.40;99.90
57636;DHT22;43465;50.728;4.160;2022-09-29T18:52:29;14.40;99.90
57636;DHT22;43465;50.728;4.160;2022-09-29T18:54:55;14.50;99.90
57636;DHT22;43465;50.728;4.160;2022-09-29T18:57:20;14.50;99.90
57636;DHT22;43465;50.728;4.160;2022-09-29T18:59:46;14.50;99.90
57636;DHT22;43465;50.728;4.160;2022-09-29T19:02:14;14.50;99.90
57636;DHT22;43465;50.728;4.160;2022-09-29T19:04:40;14.50;99.90
57636;DHT22;43465;50.728;4.160;2022-09-29T19:07:05;14.40;99.90
57636;DHT22;43465;50.728;4.160;2022-09-29T19:09:32;14.40;99.90
57636;DHT22;43465;50.728;4.160;2022-09-29T19:11:58;14.30;99.90
57636;DHT22;43465;50.728;4.160;2022-09-29T19:14:23;14.30;99.90
57636;DHT22;43465;50.728;4.160;2022-09-29T19:16:49;14.30;99.90
57636;DHT22;43465;50.728;4.160;2022-09-29T19:19:14;14.30;99.90
57636;DHT22;43465;50.728;4.160;2022-09-29T19:21:40;14.20;99.90
57636;DHT22;43465;50.728;4.160;2022-09-29T19:24:07;14.20;99.90
57636;DHT22;43465;50.728;4.160;2022-09-29T19:26:32;14.10;99.90